.
WxDataArchive / Data Records for 2011-06-12
2011-06-11 June 2011 2011-06-13

Data Records for Sunday, 12 June 2011

Time	Temp	Chill	HIndex	Humid	Dewpt	 Wind 	HiWind	WindDir	Rain 	Barom 
-----	----	-----	------	-----	-----	------	------	-------	-----	----- 
00:00	61.6	61.6	61.6	84	56.7	1	3	270	0.00	29.915 
00:05	61.3	61.3	61.3	84	56.4	2	5	315	0.00	29.915 
00:10	61.0	61.0	61.0	84	56.1	2	8	315	0.00	29.915 
00:15	60.7	60.7	60.7	84	55.8	1	4	292	0.00	29.912 
00:20	60.5	60.5	60.5	84	55.6	1	3	292	0.00	29.912 
00:25	60.4	60.4	60.4	84	55.5	0	2	338	0.00	29.912 
00:30	60.2	60.2	60.2	84	55.3	0	1	338	0.00	29.920 
00:35	60.1	60.1	60.1	85	55.6	1	3	270	0.00	29.920 
00:40	59.9	59.9	59.9	85	55.4	2	5	270	0.00	29.920 
00:45	59.6	59.6	59.6	85	55.1	0	3	292	0.00	29.924 
00:50	59.2	59.2	59.2	85	54.7	0	2	292	0.00	29.924 
00:55	58.9	58.9	58.9	84	54.1	1	3	315	0.00	29.924 
01:00	58.6	58.6	58.6	84	53.8	1	4	270	0.00	29.923 
01:05	58.3	58.3	58.3	84	53.5	0	3	292	0.00	29.923 
01:10	57.8	57.8	57.8	83	52.7	1	4	270	0.00	29.923 
01:15	57.5	57.5	57.5	83	52.4	1	4	270	0.00	29.926 
01:20	57.2	57.2	57.2	82	51.8	2	4	270	0.00	29.926 
01:25	56.9	56.9	56.9	81	51.1	1	4	270	0.00	29.926 
01:30	56.7	56.7	56.7	81	50.9	1	3	270	0.00	29.934 
01:35	56.6	56.6	56.6	80	50.5	1	4	270	0.00	29.934 
01:40	56.5	56.5	56.5	81	50.7	1	2	270	0.00	29.934 
01:45	56.3	56.3	56.3	81	50.5	1	3	315	0.00	29.930 
01:50	56.0	56.0	56.0	81	50.3	1	3	315	0.00	29.930 
01:55	55.9	55.9	55.9	81	50.2	1	3	315	0.00	29.930 
02:00	55.7	55.7	55.7	81	50.0	1	3	315	0.00	29.928 
02:05	55.6	55.6	55.6	81	49.9	0	3	315	0.00	29.928 
02:10	55.4	55.4	55.4	81	49.7	1	3	315	0.00	29.928 
02:15	55.3	55.3	55.3	81	49.6	0	2	315	0.00	29.940 
02:20	55.1	55.1	55.1	82	49.7	0	2	315	0.00	29.940 
02:25	55.0	55.0	55.0	82	49.6	0	2	315	0.00	29.940 
02:30	54.8	54.8	54.8	83	49.7	1	4	315	0.00	29.944 
02:35	54.7	54.7	54.7	83	49.6	0	4	315	0.00	29.944 
02:40	54.5	54.5	54.5	84	49.8	1	4	270	0.00	29.944 
02:45	54.4	54.4	54.4	84	49.7	1	3	270	0.00	29.948 
02:50	54.2	54.2	54.2	84	49.5	1	3	270	0.00	29.948 
02:55	54.1	54.1	54.1	84	49.4	0	2	270	0.00	29.948 
03:00	54.1	54.1	54.1	85	49.7	1	4	270	0.00	29.950 
03:05	53.9	53.9	53.9	85	49.5	2	5	270	0.00	29.950 
03:10	53.9	53.9	53.9	86	49.8	0	2	270	0.00	29.950 
03:15	53.8	53.8	53.8	86	49.7	0	1	270	0.00	29.952 
03:20	53.6	53.6	53.6	86	49.5	1	3	270	0.00	29.952 
03:25	53.5	53.5	53.5	86	49.4	0	1	270	0.00	29.952 
03:30	53.3	53.3	53.3	87	49.5	0	2	270	0.00	29.950 
03:35	53.3	53.3	53.3	87	49.5	0	1	270	0.00	29.950 
03:40	53.3	53.3	53.3	87	49.5	0	1	270	0.00	29.950 
03:45	53.2	53.2	53.2	87	49.4	0	1	270	0.00	29.950 
03:50	53.1	53.1	53.1	88	49.6	0	1	270	0.00	29.950 
03:55	53.1	53.1	53.1	88	49.6	0	1	270	0.00	29.950 
04:00	52.9	52.9	52.9	88	49.4	0	0	---	0.00	29.945 
04:05	52.9	52.9	52.9	88	49.4	0	1	270	0.00	29.945 
04:10	52.9	52.9	52.9	89	49.7	0	2	270	0.00	29.945 
04:15	52.8	52.8	52.8	89	49.6	0	1	270	0.00	29.939 
04:20	52.8	52.8	52.8	89	49.6	0	0	---	0.00	29.939 
04:25	52.6	52.6	52.6	89	49.4	0	1	270	0.00	29.939 
04:30	52.6	52.6	52.6	89	49.4	0	1	270	0.00	29.939 
04:35	52.5	52.5	52.5	89	49.4	0	1	292	0.00	29.939 
04:40	52.5	52.5	52.5	90	49.7	0	2	292	0.00	29.939 
04:45	52.3	52.3	52.3	90	49.5	0	2	292	0.00	29.947 
04:50	52.3	52.3	52.3	90	49.5	0	1	292	0.00	29.947 
04:55	52.2	52.2	52.2	90	49.4	0	1	292	0.00	29.947 
05:00	52.2	52.2	52.2	90	49.4	0	1	292	0.00	29.941 
05:05	52.0	52.0	52.0	90	49.2	0	1	292	0.00	29.941 
05:10	52.0	52.0	52.0	91	49.5	0	2	292	0.00	29.941 
05:15	51.9	51.9	51.9	91	49.4	0	1	292	0.00	29.941 
05:20	51.9	51.9	51.9	91	49.4	0	2	292	0.00	29.941 
05:25	51.9	51.9	51.9	91	49.4	0	1	292	0.00	29.941 
05:30	51.9	51.9	51.9	91	49.4	0	2	292	0.00	29.951 
05:35	51.9	51.9	51.9	91	49.4	0	1	292	0.00	29.951 
05:40	52.0	52.0	52.0	91	49.5	1	3	292	0.00	29.951 
05:45	52.0	52.0	52.0	91	49.5	1	4	292	0.00	29.949 
05:50	52.2	52.2	52.2	91	49.7	1	5	292	0.00	29.949 
05:55	52.2	52.2	52.2	91	49.7	1	5	292	0.00	29.949 
06:00	52.3	52.3	52.3	91	49.8	1	3	270	0.00	29.950 
06:05	52.3	52.3	52.3	91	49.8	1	3	292	0.00	29.950 
06:10	52.5	52.5	52.5	91	49.9	0	2	292	0.00	29.950 
06:15	52.5	52.5	52.5	91	49.9	1	3	292	0.00	29.963 
06:20	52.6	52.6	52.6	91	50.0	1	3	315	0.00	29.963 
06:25	52.6	52.6	52.6	91	50.0	1	4	292	0.00	29.963 
06:30	52.8	52.8	52.8	91	50.2	0	2	292	0.00	29.978 
06:35	52.9	52.9	52.9	91	50.3	0	2	315	0.00	29.978 
06:40	52.9	52.9	52.9	91	50.3	1	4	315	0.00	29.978 
06:45	53.1	53.1	53.1	90	50.2	1	4	270	0.00	29.981 
06:50	53.1	53.1	53.1	90	50.2	1	5	270	0.00	29.981 
06:55	53.2	53.2	53.2	90	50.3	0	2	338	0.00	29.981 
07:00	53.3	53.3	53.3	89	50.1	1	3	292	0.00	29.983 
07:05	53.3	53.3	53.3	89	50.1	0	2	270	0.00	29.983 
07:10	53.5	53.5	53.5	89	50.3	0	2	270	0.00	29.983 
07:15	53.6	53.6	53.6	89	50.4	0	3	315	0.00	29.987 
07:20	53.8	53.8	53.8	88	50.3	0	2	315	0.00	29.987 
07:25	54.1	54.1	54.1	88	50.6	0	0	---	0.00	29.987 
07:30	54.2	54.2	54.2	88	50.7	0	2	315	0.00	29.989 
07:35	54.2	54.2	54.2	87	50.4	0	3	315	0.00	29.989 
07:40	54.4	54.4	54.4	87	50.6	0	1	315	0.00	29.989 
07:45	54.5	54.5	54.5	86	50.4	0	2	315	0.00	29.993 
07:50	54.8	54.8	54.8	86	50.7	0	1	315	0.00	29.993 
07:55	55.1	55.1	55.1	85	50.7	0	3	315	0.00	29.993 
08:00	55.6	55.6	55.6	84	50.8	1	4	292	0.00	29.996 
08:05	55.9	55.9	55.9	83	50.8	0	4	292	0.00	29.996 
08:10	56.2	56.2	56.2	82	50.8	1	2	292	0.00	29.996 
08:15	56.5	56.5	56.5	81	50.7	1	4	292	0.00	29.999 
08:20	56.7	56.7	56.7	80	50.6	1	3	292	0.00	29.999 
08:25	57.2	57.2	57.2	79	50.7	0	3	292	0.00	29.999 
08:30	57.5	57.5	57.5	79	51.0	1	4	22	0.00	29.997 
08:35	57.8	57.8	57.8	77	50.6	1	3	315	0.00	29.997 
08:40	58.0	58.0	58.0	76	50.5	1	2	315	0.00	29.997 
08:45	58.0	58.0	58.0	75	50.1	1	3	315	0.00	30.003 
08:50	58.1	58.1	58.1	74	49.9	1	4	270	0.00	30.003 
08:55	58.4	58.4	58.4	73	49.8	1	3	315	0.00	30.003 
09:00	58.6	58.6	58.6	72	49.6	1	4	315	0.00	30.000 
09:05	58.9	58.9	58.9	72	49.9	1	3	315	0.00	30.000 
09:10	59.2	59.2	59.2	72	50.2	1	3	315	0.00	30.000 
09:15	59.3	59.3	59.3	70	49.5	1	4	270	0.00	30.011 
09:20	59.3	59.3	59.3	70	49.5	2	6	292	0.00	30.011 
09:25	59.5	59.5	59.5	70	49.7	1	4	315	0.00	30.011 
09:30	59.8	59.8	59.8	70	50.0	1	3	270	0.00	30.012 
09:35	59.9	59.9	59.9	69	49.7	2	4	338	0.00	30.012 
09:40	59.8	59.8	59.8	69	49.6	2	6	315	0.00	30.012 
09:45	59.8	59.8	59.8	69	49.6	2	4	315	0.00	30.015 
09:50	59.9	59.9	59.9	67	48.9	1	5	292	0.00	30.015 
09:55	60.1	60.1	60.1	67	49.1	1	5	315	0.00	30.015 
10:00	60.2	60.2	60.2	65	48.4	2	7	292	0.00	30.022 
10:05	60.2	60.2	60.2	65	48.4	2	6	292	0.00	30.022 
10:10	60.5	60.5	60.5	65	48.7	1	5	270	0.00	30.022 
10:15	60.9	60.9	60.9	65	49.1	1	4	292	0.00	30.029 
10:20	61.2	61.2	61.2	66	49.7	1	4	315	0.00	30.029 
10:25	61.0	61.0	61.0	64	48.7	2	5	315	0.00	30.029 
10:30	61.2	61.2	61.2	65	49.3	1	5	292	0.00	30.029 
10:35	61.0	61.0	61.0	62	47.9	2	5	292	0.00	30.029 
10:40	61.3	61.3	61.3	63	48.6	1	5	315	0.00	30.029 
10:45	61.8	61.8	61.8	62	48.6	1	7	270	0.00	30.028 
10:50	61.8	61.8	61.8	61	48.2	2	5	292	0.00	30.028 
10:55	61.8	61.8	61.8	61	48.2	1	5	292	0.00	30.028 
11:00	62.1	62.1	62.1	61	48.5	1	3	292	0.00	30.031 
11:05	62.4	62.4	62.4	60	48.3	2	7	292	0.00	30.031 
11:10	62.7	62.7	62.7	59	48.2	1	7	292	0.00	30.031 
11:15	63.1	63.1	63.1	59	48.5	1	5	270	0.00	30.034 
11:20	63.4	63.4	63.4	56	47.4	1	4	270	0.00	30.034 
11:25	63.2	63.2	63.2	56	47.2	1	4	270	0.00	30.034 
11:30	63.7	63.7	63.7	59	49.1	1	4	270	0.00	30.040 
11:35	64.2	64.2	64.2	56	48.2	1	2	338	0.00	30.040 
11:40	64.7	64.7	64.7	55	48.2	1	4	45	0.00	30.040 
11:45	64.8	64.8	64.8	54	47.8	2	6	112	0.00	30.039 
11:50	64.7	64.7	64.7	53	47.2	1	4	315	0.00	30.039 
11:55	64.3	64.3	64.3	54	47.3	2	5	0	0.00	30.039 
12:00	64.2	64.2	64.2	57	48.6	1	5	315	0.00	30.037 
12:05	64.3	64.3	64.3	55	47.8	1	5	292	0.00	30.037 
12:10	64.7	64.7	64.7	56	48.6	1	4	315	0.00	30.037 
12:15	64.8	64.8	64.8	54	47.8	1	3	338	0.00	30.034 
12:20	65.2	65.2	65.2	55	48.6	1	5	45	0.00	30.034 
12:25	65.2	65.2	65.2	51	46.6	2	5	90	0.00	30.034 
12:30	65.2	65.2	65.2	53	47.6	1	4	315	0.00	30.032 
12:35	65.0	65.0	65.0	54	47.9	2	5	292	0.00	30.032 
12:40	65.2	65.2	65.2	52	47.1	1	4	270	0.00	30.032 
12:45	65.6	65.6	65.6	55	49.0	1	4	292	0.00	30.033 
12:50	65.8	65.8	65.8	53	48.2	1	3	292	0.00	30.033 
12:55	66.1	66.1	66.1	52	48.0	1	3	292	0.00	30.033 
13:00	66.3	66.3	66.3	52	48.1	2	3	292	0.00	30.033 
13:05	66.6	66.6	66.6	52	48.4	1	4	338	0.00	30.033 
13:10	66.8	66.8	66.8	52	48.6	2	12	112	0.00	30.033 
13:15	66.8	66.8	66.8	55	50.1	1	4	292	0.00	30.034 
13:20	66.8	66.8	66.8	52	48.6	2	5	270	0.00	30.034 
13:25	66.6	66.6	66.6	49	46.8	1	6	292	0.00	30.034 
13:30	66.9	66.9	66.9	50	47.6	1	4	292	0.00	30.033 
13:35	66.9	66.9	66.9	48	46.6	2	6	292	0.00	30.033 
13:40	66.8	66.8	66.8	49	47.0	2	5	270	0.00	30.033 
13:45	66.4	66.4	66.4	46	45.0	2	5	270	0.00	30.031 
13:50	67.1	67.1	67.1	49	47.3	1	5	292	0.00	30.031 
13:55	67.8	67.8	67.8	48	47.4	1	3	270	0.00	30.031 
14:00	67.6	67.6	67.6	47	46.6	1	5	338	0.00	30.027 
14:05	67.8	67.8	67.8	49	47.9	1	4	45	0.00	30.027 
14:10	67.8	67.8	67.8	49	47.9	0	3	135	0.00	30.027 
14:15	68.3	68.3	68.3	49	48.4	0	3	135	0.00	30.024 
14:20	68.4	68.4	68.4	50	49.0	1	2	315	0.00	30.024 
14:25	68.3	68.3	68.3	44	45.5	1	3	315	0.00	30.024 
14:30	68.3	68.3	68.3	47	47.3	1	6	315	0.00	30.031 
14:35	68.4	68.4	68.4	46	46.8	1	5	270	0.00	30.031 
14:40	68.6	68.6	68.6	47	47.6	0	4	315	0.00	30.031 
14:45	69.1	69.1	69.1	47	48.0	1	3	112	0.00	30.032 
14:50	69.4	69.4	69.4	48	48.8	1	3	292	0.00	30.032 
14:55	69.8	69.8	69.8	47	48.6	1	4	135	0.00	30.032 
15:00	69.4	69.4	69.4	45	47.1	1	2	270	0.00	30.034 
15:05	69.4	69.4	69.4	44	46.5	1	6	270	0.00	30.034 
15:10	69.1	69.1	69.1	44	46.3	2	6	315	0.00	30.034 
15:15	69.1	69.1	69.1	45	46.9	1	5	270	0.00	30.037 
15:20	69.3	69.3	69.3	45	47.0	2	5	270	0.00	30.037 
15:25	69.1	69.1	69.1	44	46.3	1	5	270	0.00	30.037 
15:30	68.9	68.9	68.9	46	47.3	2	6	270	0.00	30.028 
15:35	69.3	69.3	69.3	49	49.3	1	3	270	0.00	30.028 
15:40	69.6	69.6	69.6	46	47.9	1	4	292	0.00	30.028 
15:45	70.1	70.1	70.1	54	52.7	0	2	292	0.00	30.020 
15:50	70.4	70.4	70.4	48	49.8	1	3	292	0.00	30.020 
15:55	70.6	70.6	70.6	47	49.4	1	2	45	0.00	30.020 
16:00	70.4	70.4	70.4	46	48.6	1	3	315	0.00	30.019 
16:05	70.6	70.6	70.6	46	48.8	1	6	292	0.00	30.019 
16:10	70.4	70.4	70.4	45	48.0	1	5	292	0.00	30.019 
16:15	70.3	70.3	70.3	46	48.5	1	5	270	0.00	30.020 
16:20	70.4	70.4	70.4	45	48.0	1	3	270	0.00	30.020 
16:25	70.4	70.4	70.4	45	48.0	1	5	270	0.00	30.020 
16:30	70.6	70.6	70.6	48	49.9	0	2	315	0.00	30.019 
16:35	70.8	70.8	70.8	47	49.6	0	2	315	0.00	30.019 
16:40	70.8	70.8	70.8	49	50.7	0	3	315	0.00	30.019 
16:45	70.9	70.9	70.9	45	48.5	1	5	112	0.00	30.018 
16:50	71.1	71.1	71.1	45	48.7	0	3	135	0.00	30.018 
16:55	70.9	70.9	70.9	47	49.7	0	3	135	0.00	30.018 
17:00	70.6	70.6	70.6	46	48.8	0	3	338	0.00	30.019 
17:05	70.6	70.6	70.6	44	47.6	0	2	315	0.00	30.019 
17:10	70.1	70.1	70.1	46	48.3	1	4	68	0.00	30.019 
17:15	69.9	69.9	69.9	45	47.6	1	4	338	0.00	30.018 
17:20	69.9	69.9	69.9	46	48.2	0	3	292	0.00	30.018 
17:25	70.1	70.1	70.1	49	50.0	0	2	292	0.00	30.018 
17:30	70.4	70.4	70.4	50	50.9	0	1	292	0.00	30.017 
17:35	70.6	70.6	70.6	48	49.9	0	4	292	0.00	30.017 
17:40	70.6	70.6	70.6	45	48.2	1	5	112	0.00	30.017 
17:45	70.4	70.4	70.4	46	48.6	0	3	292	0.00	30.018 
17:50	70.3	70.3	70.3	46	48.5	1	4	135	0.00	30.018 
17:55	69.9	69.9	69.9	44	47.0	0	2	270	0.00	30.018 
18:00	69.6	69.6	69.6	46	47.9	0	2	270	0.00	30.018 
18:05	69.3	69.3	69.3	47	48.2	0	2	315	0.00	30.018 
18:10	69.6	69.6	69.6	46	47.9	0	2	292	0.00	30.018 
18:15	69.4	69.4	69.4	47	48.3	1	4	292	0.00	30.019 
18:20	69.3	69.3	69.3	47	48.2	1	4	315	0.00	30.019 
18:25	69.1	69.1	69.1	47	48.0	0	3	112	0.00	30.019 
18:30	69.1	69.1	69.1	47	48.0	0	1	112	0.00	30.022 
18:35	69.3	69.3	69.3	47	48.2	1	2	270	0.00	30.022 
18:40	69.1	69.1	69.1	47	48.0	0	1	270	0.00	30.022 
18:45	68.6	68.6	68.6	48	48.1	0	1	270	0.00	30.025 
18:50	68.1	68.1	68.1	48	47.7	0	3	270	0.00	30.025 
18:55	67.9	67.9	67.9	48	47.5	0	2	270	0.00	30.025 
19:00	68.1	68.1	68.1	50	48.7	0	3	270	0.00	30.029 
19:05	68.4	68.4	68.4	49	48.5	1	4	292	0.00	30.029 
19:10	68.1	68.1	68.1	50	48.7	0	2	292	0.00	30.029 
19:15	67.8	67.8	67.8	51	49.0	0	4	292	0.00	30.021 
19:20	67.8	67.8	67.8	52	49.5	0	2	292	0.00	30.021 
19:25	67.8	67.8	67.8	52	49.5	1	2	292	0.00	30.021 
19:30	67.4	67.4	67.4	52	49.2	1	4	270	0.00	30.026 
19:35	67.3	67.3	67.3	52	49.1	1	4	292	0.00	30.026 
19:40	66.9	66.9	66.9	53	49.2	0	2	292	0.00	30.026 
19:45	66.8	66.8	66.8	53	49.1	0	2	292	0.00	30.029 
19:50	66.6	66.6	66.6	53	48.9	0	5	270	0.00	30.029 
19:55	66.4	66.4	66.4	54	49.2	0	3	270	0.00	30.029 
20:00	66.1	66.1	66.1	54	49.0	0	3	270	0.00	30.032 
20:05	65.8	65.8	65.8	53	48.2	0	3	270	0.00	30.032 
20:10	65.6	65.6	65.6	54	48.5	0	2	270	0.00	30.032 
20:15	65.5	65.5	65.5	55	48.9	0	3	270	0.00	30.030 
20:20	65.3	65.3	65.3	56	49.2	0	1	180	0.00	30.030 
20:25	65.0	65.0	65.0	56	48.9	0	2	180	0.00	30.030 
20:30	64.8	64.8	64.8	57	49.2	0	1	180	0.00	30.032 
20:35	64.5	64.5	64.5	57	48.9	0	1	180	0.00	30.032 
20:40	64.3	64.3	64.3	57	48.7	0	1	180	0.00	30.032 
20:45	64.2	64.2	64.2	58	49.1	0	2	135	0.00	30.035 
20:50	63.9	63.9	63.9	59	49.3	0	3	135	0.00	30.035 
20:55	63.5	63.5	63.5	59	48.9	0	4	90	0.00	30.035 
21:00	63.2	63.2	63.2	59	48.6	0	1	90	0.00	30.041 
21:05	63.1	63.1	63.1	60	49.0	0	2	90	0.00	30.041 
21:10	62.7	62.7	62.7	60	48.6	0	0	---	0.00	30.041 
21:15	62.6	62.6	62.6	61	49.0	0	4	112	0.00	30.047 
21:20	62.3	62.3	62.3	61	48.7	0	1	112	0.00	30.047 
21:25	62.1	62.1	62.1	62	48.9	0	0	---	0.00	30.047 
21:30	61.8	61.8	61.8	63	49.1	0	0	---	0.00	30.050 
21:35	61.6	61.6	61.6	63	48.9	0	0	---	0.00	30.050 
21:40	61.3	61.3	61.3	64	49.0	0	0	---	0.00	30.050 
21:45	61.2	61.2	61.2	64	48.9	0	0	---	0.00	30.053 
21:50	61.0	61.0	61.0	64	48.7	0	0	---	0.00	30.053 
21:55	60.9	60.9	60.9	65	49.1	0	0	---	0.00	30.053 
22:00	60.7	60.7	60.7	65	48.9	0	0	---	0.00	30.058 
22:05	60.5	60.5	60.5	66	49.1	0	0	---	0.00	30.058 
22:10	60.4	60.4	60.4	66	49.0	0	0	---	0.00	30.058 
22:15	60.1	60.1	60.1	66	48.7	0	0	---	0.00	30.063 
22:20	59.9	59.9	59.9	67	48.9	0	0	---	0.00	30.063 
22:25	59.8	59.8	59.8	67	48.8	0	0	---	0.00	30.063 
22:30	59.6	59.6	59.6	68	49.0	0	1	112	0.00	30.066 
22:35	59.5	59.5	59.5	69	49.3	0	0	---	0.00	30.066 
22:40	59.3	59.3	59.3	69	49.1	0	0	---	0.00	30.066 
22:45	59.2	59.2	59.2	69	49.0	0	1	112	0.00	30.066 
22:50	59.2	59.2	59.2	69	49.0	0	0	---	0.00	30.066 
22:55	59.0	59.0	59.0	70	49.2	0	0	---	0.00	30.066 
23:00	58.9	58.9	58.9	70	49.1	0	0	---	0.00	30.067 
23:05	58.7	58.7	58.7	70	48.9	0	0	---	0.00	30.067 
23:10	58.6	58.6	58.6	70	48.8	0	0	---	0.00	30.067 
23:15	58.4	58.4	58.4	71	49.0	0	0	---	0.00	30.063 
23:20	58.3	58.3	58.3	72	49.3	0	0	---	0.00	30.063 
23:25	58.1	58.1	58.1	73	49.5	0	0	---	0.00	30.063 
23:30	58.0	58.0	58.0	73	49.4	0	0	---	0.00	30.063 
23:35	57.8	57.8	57.8	75	49.9	0	0	---	0.00	30.063 
23:40	57.6	57.6	57.6	76	50.1	0	0	---	0.00	30.063 
23:45	57.5	57.5	57.5	76	50.0	0	0	---	0.00	30.065 
23:50	57.2	57.2	57.2	77	50.1	0	0	---	0.00	30.065 
23:55	57.0	57.0	57.0	77	49.9	0	0	---	0.00	30.065 

CoCoRaHS
IN-AL-39
A2 Web Hosting
Creative Commons License
GoDaddy
search engine by freefind advanced

loaded 2018-11-13 22:37:11 • last modified 2010-11-18 10:43:29
Privacy PolicyDisclaimer
• wx.awcolley.com is powered by PmWiki v.2002016 •
• all content (unless otherwise noted) © 2018 A W Colley